Aviation Digital Data Service (ADDS)

Output produced by METARs form (1035 UTC 19 January 2019)
found at http://www.aviationweather.gov/metar/data/
 
FKKD 191000Z 29005KT 9999 SCT008 BKN013 FEW016CB 31/26 Q1013 NOSIG
TAF COR FKKD 190500Z 1906/2012 24005KT 8000 BKN013 FEW020CB 
     TEMPO 1906/1908 2000 TS BR 
     BECMG 1909/1911 BKN016 FEW020CB
       
FKKR 191000Z 09006KT 030V150 CAVOK 31/M03 Q1014 NOSIG
TAF FKKR 190500Z 1906/1918 12006KT 8000 NSC
       
FKKN 191000Z 04004KT CAVOK 28/03 Q1019
FKYS 191000Z /////KT 6000 BKN020 28/22 Q1018 NOSIG
TAF FKYS 190500Z 1906/2006 VRB05KT 6000 BKN006 
     TEMPO 1906/1908 2000 BR 
     BECMG 1907/1909 BKN013 
     BECMG 1909/1911 BKN020